createdAt,value
2023-05-14T00:44:54.389Z,0
2023-05-14T00:54:36.284Z,0
2023-05-14T00:59:33.572Z,0
2023-05-14T01:04:34.208Z,0
2023-05-14T01:14:35.416Z,0
2023-05-14T01:19:32.242Z,0
2023-05-14T01:29:31.381Z,0
2023-05-14T01:34:30.848Z,0
2023-05-14T01:44:28.404Z,0
2023-05-14T01:49:27.576Z,0
2023-05-14T02:01:12.780Z,0
2023-05-14T02:05:57.169Z,0
2023-05-14T02:15:56.997Z,0
2023-05-14T02:20:56.067Z,0
2023-05-14T02:25:55.718Z,0
2023-05-14T02:30:43.602Z,0
2023-05-14T02:35:43.152Z,0
2023-05-14T02:40:43.990Z,0
2023-05-14T02:45:43.319Z,0
2023-05-14T02:50:40.632Z,0
2023-05-14T02:55:40.661Z,0
2023-05-14T03:00:10.030Z,0
2023-05-14T03:05:06.144Z,0
2023-05-14T03:10:03.518Z,0
2023-05-14T03:15:03.650Z,0
2023-05-14T03:20:03.402Z,0
2023-05-14T03:25:02.388Z,0
2023-05-14T03:30:02.294Z,0
2023-05-14T03:35:01.630Z,0
2023-05-14T03:40:01.931Z,0
2023-05-14T03:45:00.904Z,0
2023-05-14T03:50:02.837Z,0
2023-05-14T03:54:58.664Z,0
2023-05-14T04:04:55.368Z,0
2023-05-14T04:19:43.120Z,0.01
2023-05-14T04:24:42.284Z,0.02
2023-05-14T04:34:40.010Z,0.02
2023-05-14T04:54:38.114Z,0.04
2023-05-14T05:04:38.044Z,0.05
2023-05-14T05:09:38.776Z,0.05
2023-05-14T05:14:35.566Z,0.06
2023-05-14T05:19:50.204Z,0.06
2023-05-14T05:24:34.716Z,0.07
2023-05-14T05:29:34.594Z,0.08
2023-05-14T05:34:32.354Z,0.08
2023-05-14T05:39:31.899Z,0.09
2023-05-14T05:44:32.365Z,0.1
2023-05-14T05:49:31.919Z,0.1
2023-05-14T05:54:31.344Z,0.11
2023-05-14T07:01:10.969Z,0.22
2023-05-14T07:10:55.702Z,0.36
2023-05-14T07:15:55.407Z,0.38
2023-05-14T07:20:56.536Z,0.39
2023-05-14T07:25:57.512Z,0.29
2023-05-14T07:30:55.385Z,0.42
2023-05-14T07:35:55.026Z,0.44
2023-05-14T07:40:57.319Z,0.46
2023-05-14T07:45:54.764Z,0.47
2023-05-14T07:50:55.983Z,0.49
2023-05-14T07:55:55.844Z,0.51
2023-05-14T08:00:04.134Z,0.52
2023-05-14T08:05:04.409Z,0.54
2023-05-14T08:10:04.511Z,0.57
2023-05-14T08:15:05.491Z,0.59
2023-05-14T08:20:01.904Z,0.62
2023-05-14T08:25:01.475Z,0.64
2023-05-14T08:30:03.516Z,0.66
2023-05-14T08:35:01.130Z,0.68
2023-05-14T08:39:58.229Z,0.7
2023-05-14T08:44:58.302Z,0.72
2023-05-14T08:49:57.731Z,0.74
2023-05-14T08:54:57.529Z,0.35
2023-05-14T08:59:55.135Z,0.8
2023-05-14T09:04:55.640Z,0.82
2023-05-14T09:09:55.279Z,0.83
2023-05-14T09:14:56.012Z,0.84
2023-05-14T09:19:43.091Z,0.87
2023-05-14T09:24:42.389Z,0.39
2023-05-14T09:29:42.168Z,0.87
2023-05-14T09:34:39.592Z,0.87
2023-05-14T09:39:39.450Z,0.95
2023-05-14T09:44:38.919Z,0.42
2023-05-14T09:49:38.917Z,0.47
2023-05-14T09:54:37.647Z,0.54
2023-05-14T10:49:43.206Z,0.41
2023-05-14T11:01:14.971Z,0.42
2023-05-14T11:05:59.375Z,0.49
2023-05-14T11:10:58.243Z,1.19
2023-05-14T11:16:00.780Z,0.7
2023-05-14T11:20:58.956Z,0.71
2023-05-14T11:26:00.349Z,1.19
2023-05-14T11:30:57.917Z,0.63
2023-05-14T11:35:57.587Z,0.46
2023-05-14T11:40:59.267Z,0.46
2023-05-14T11:45:55.927Z,0.53
2023-05-14T11:50:56.060Z,0.47
2023-05-14T11:55:55.224Z,0.48
2023-05-14T12:09:59.936Z,0.57
2023-05-14T12:15:01.292Z,0.54
2023-05-14T12:19:59.147Z,0.44
2023-05-14T12:24:58.257Z,0.45
2023-05-14T12:30:06.524Z,0.57
2023-05-14T12:34:55.754Z,0.65
2023-05-14T12:39:55.804Z,0.55
2023-05-14T12:44:57.091Z,0.65
2023-05-14T12:49:54.448Z,0.57
2023-05-14T12:54:53.605Z,0.79
2023-05-14T12:59:53.984Z,0.47
2023-05-14T13:04:41.665Z,0.4
2023-05-14T13:09:40.929Z,0.32
2023-05-14T13:14:40.191Z,0.31
2023-05-14T13:19:39.729Z,0.37
2023-05-14T13:24:38.679Z,0.38
2023-05-14T13:29:38.517Z,0.37
2023-05-14T13:34:38.814Z,0.36
2023-05-14T13:39:38.711Z,0.4
2023-05-14T13:49:35.635Z,0.45
2023-05-14T13:54:36.835Z,0.42
2023-05-14T13:59:34.902Z,0.39
2023-05-14T14:09:34.021Z,0.29
2023-05-14T14:14:33.290Z,0.26
2023-05-14T14:24:30.983Z,0.27
2023-05-14T14:29:30.247Z,0.28
2023-05-14T14:39:29.730Z,0.45
2023-05-14T14:44:29.567Z,0.6
2023-05-14T14:54:29.605Z,0.28
2023-05-14T15:01:17.403Z,0.53
2023-05-14T15:05:59.070Z,0.31
2023-05-14T15:10:59.169Z,0.27
2023-05-14T15:15:58.924Z,0.3
2023-05-14T15:20:57.085Z,0.22
2023-05-14T15:25:57.494Z,0.21
2023-05-14T15:30:57.292Z,0.2
2023-05-14T15:35:56.497Z,0.21
2023-05-14T15:40:55.995Z,0.19
2023-05-14T15:45:55.657Z,0.18
2023-05-14T15:50:54.298Z,0.17
2023-05-14T15:55:54.167Z,0.18
2023-05-14T16:00:05.186Z,0.16
2023-05-14T16:05:06.196Z,0.14
2023-05-14T16:10:02.569Z,0.13
2023-05-14T16:15:02.343Z,0.13
2023-05-14T16:20:03.022Z,0.12
2023-05-14T16:25:03.374Z,0.13
2023-05-14T16:29:59.029Z,0.16
2023-05-14T16:34:58.739Z,0.18
2023-05-14T16:44:58.729Z,0.11
2023-05-14T16:49:58.337Z,0.09
2023-05-14T16:54:57.781Z,0.09
2023-05-14T16:59:54.916Z,0.08
2023-05-14T17:04:54.096Z,0.08
2023-05-14T17:14:40.974Z,0.08
2023-05-14T17:19:40.622Z,0.08
2023-05-14T18:01:20.214Z,0.03
2023-05-14T18:05:55.187Z,0.02
2023-05-14T18:10:55.062Z,0.02
2023-05-14T18:15:54.893Z,0.01
2023-05-14T18:20:53.978Z,0.01
2023-05-14T18:25:55.247Z,0.01
2023-05-14T18:35:51.251Z,0
2023-05-14T18:45:50.295Z,0
2023-05-14T18:56:40.790Z,0
2023-05-14T19:05:01.119Z,0
2023-05-14T19:44:55.540Z,0
2023-05-14T20:29:56.850Z,0
2023-05-14T21:04:43.681Z,0
2023-05-14T22:04:33.212Z,0
2023-05-14T22:09:33.942Z,0
2023-05-14T22:14:30.256Z,0
2023-05-14T22:19:30.573Z,0
2023-05-14T22:24:30.129Z,0
2023-05-14T22:29:29.126Z,0
2023-05-14T22:34:29.552Z,0
2023-05-14T22:39:29.214Z,0
2023-05-14T22:44:29.927Z,0
2023-05-14T22:49:29.774Z,0
2023-05-14T22:54:27.735Z,0
2023-05-14T23:05:59.055Z,0
2023-05-14T23:10:55.977Z,0
2023-05-14T23:15:55.862Z,0
2023-05-14T23:20:57.172Z,0
2023-05-14T23:25:54.738Z,0
2023-05-14T23:30:53.738Z,0
2023-05-14T23:35:53.716Z,0
2023-05-14T23:40:41.405Z,0
2023-05-14T23:45:41.107Z,0
2023-05-14T23:50:41.523Z,0
2023-05-14T23:55:40.846Z,0
